createdAt,value
2023-02-28T00:02:49.431Z,8.20
2023-02-28T00:07:51.873Z,8.40
2023-02-28T00:12:55.432Z,6.80
2023-02-28T00:17:56.968Z,10.30
2023-02-28T00:22:58.483Z,8.10
2023-02-28T00:27:59.986Z,9.20
2023-02-28T00:33:01.547Z,6.60
2023-02-28T00:38:03.524Z,8.40
2023-02-28T00:43:05.091Z,12.50
2023-02-28T00:48:07.222Z,8.90
2023-02-28T00:53:08.774Z,12.30
2023-02-28T00:58:10.304Z,10.90
2023-02-28T01:03:11.797Z,10.60
2023-02-28T01:08:14.729Z,7.10
2023-02-28T01:13:16.786Z,7.40
2023-02-28T01:18:18.868Z,33.10
2023-02-28T01:23:22.733Z,11.10
2023-02-28T01:28:24.549Z,14.40
2023-02-28T01:33:26.378Z,13.60
2023-02-28T01:38:28.447Z,12.20
2023-02-28T01:43:52.053Z,11.10
2023-02-28T01:49:12.616Z,12.50
2023-02-28T01:54:19.282Z,9.10
2023-02-28T01:59:41.566Z,9.90
2023-02-28T02:04:52.636Z,9.70
2023-02-28T02:10:03.150Z,8.30
2023-02-28T02:15:20.037Z,8.00
2023-02-28T02:20:43.165Z,8.00
2023-02-28T02:25:50.925Z,8.00
2023-02-28T02:31:23.550Z,10.80
2023-02-28T02:36:37.317Z,9.70
2023-02-28T02:41:54.970Z,9.90
2023-02-28T02:47:03.013Z,8.10
2023-02-28T02:52:09.418Z,7.70
2023-02-28T02:57:16.872Z,6.10
2023-02-28T03:02:20.026Z,7.80
2023-02-28T03:07:21.746Z,9.80
2023-02-28T03:12:51.325Z,8.70
2023-02-28T03:18:09.605Z,62.30
2023-02-28T03:23:14.595Z,23.70
2023-02-28T03:28:23.986Z,14.40
2023-02-28T03:33:35.697Z,16.50
2023-02-28T03:38:45.066Z,13.00
2023-02-28T03:43:53.017Z,19.70
2023-02-28T03:49:13.216Z,15.40
2023-02-28T03:54:20.345Z,14.80
2023-02-28T03:59:31.584Z,12.60
2023-02-28T04:04:33.328Z,17.60
2023-02-28T04:09:35.207Z,13.50
2023-02-28T04:14:36.726Z,11.30
2023-02-28T04:19:38.303Z,12.10
2023-02-28T04:24:42.414Z,10.70
2023-02-28T04:29:45.561Z,14.90
2023-02-28T04:34:47.066Z,53.50
2023-02-28T04:39:48.509Z,26.80
2023-02-28T04:44:50.018Z,26.10
2023-02-28T04:49:51.557Z,25.60
2023-02-28T04:54:53.025Z,20.80
2023-02-28T04:59:54.521Z,22.60
2023-02-28T05:04:56.101Z,24.20
2023-02-28T05:09:57.625Z,19.80
2023-02-28T05:14:59.113Z,15.40
2023-02-28T05:20:13.413Z,14.40
2023-02-28T05:25:20.122Z,13.10
2023-02-28T05:35:23.095Z,14.30
2023-02-28T05:40:24.702Z,20.60
2023-02-28T05:45:26.204Z,67.80
2023-02-28T05:50:27.666Z,31.80
2023-02-28T05:55:29.234Z,22.00
2023-02-28T06:00:30.732Z,21.70
2023-02-28T06:05:32.298Z,26.00
2023-02-28T06:10:37.053Z,24.60
2023-02-28T06:15:38.801Z,30.30
2023-02-28T06:20:40.458Z,16.80
2023-02-28T06:25:46.326Z,17.70
2023-02-28T06:30:47.934Z,16.20
2023-02-28T06:35:53.179Z,12.80
2023-02-28T06:40:56.203Z,7.80
2023-02-28T06:46:00.293Z,77.60
2023-02-28T06:51:08.370Z,20.90
2023-02-28T06:56:12.544Z,23.90
2023-02-28T07:01:15.080Z,19.70
2023-02-28T07:06:19.003Z,18.60
2023-02-28T07:11:23.535Z,9.20
2023-02-28T07:16:26.462Z,14.20
2023-02-28T07:21:28.484Z,12.00
2023-02-28T07:26:30.312Z,13.50
2023-02-28T07:31:32.188Z,12.50
2023-02-28T07:36:34.026Z,10.20
2023-02-28T07:41:38.591Z,11.00
2023-02-28T07:46:40.166Z,11.10
2023-02-28T07:51:41.660Z,7.00
2023-02-28T07:56:43.155Z,10.10
2023-02-28T08:01:45.691Z,7.70
2023-02-28T08:06:47.205Z,10.40
2023-02-28T08:11:48.672Z,7.70
2023-02-28T08:16:50.285Z,10.10
2023-02-28T08:21:51.728Z,7.10
2023-02-28T08:26:53.185Z,10.40
2023-02-28T08:31:54.774Z,7.40
2023-02-28T08:36:56.720Z,6.60
2023-02-28T08:42:07.201Z,9.20
2023-02-28T08:47:09.441Z,9.50
2023-02-28T08:52:11.135Z,7.90
2023-02-28T08:57:12.635Z,10.20
2023-02-28T09:02:15.365Z,8.10
2023-02-28T09:07:16.941Z,7.30
2023-02-28T09:12:18.427Z,7.10
2023-02-28T09:17:20.517Z,8.90
2023-02-28T09:22:22.463Z,11.10
2023-02-28T09:27:23.933Z,8.00
2023-02-28T09:32:25.461Z,8.10
2023-02-28T09:37:31.828Z,8.70
2023-02-28T09:42:35.422Z,5.40
2023-02-28T09:47:43.757Z,12.40
2023-02-28T09:52:50.998Z,6.50
2023-02-28T09:57:53.668Z,6.40
2023-02-28T10:02:55.091Z,9.90
2023-02-28T10:08:17.099Z,8.00
2023-02-28T10:13:46.595Z,7.70
2023-02-28T10:19:03.355Z,11.00
2023-02-28T10:24:16.834Z,10.10
2023-02-28T10:29:18.323Z,8.20
2023-02-28T10:34:19.775Z,9.90
2023-02-28T10:39:43.487Z,8.70
2023-02-28T10:44:45.033Z,7.80
2023-02-28T10:49:53.411Z,6.90
2023-02-28T10:55:16.076Z,6.80
2023-02-28T11:00:23.027Z,7.10
2023-02-28T11:05:33.894Z,10.30
2023-02-28T11:10:35.859Z,7.80
2023-02-28T11:15:37.992Z,7.90
2023-02-28T11:20:41.319Z,8.50
2023-02-28T11:25:59.584Z,6.10
2023-02-28T11:31:05.993Z,5.30
2023-02-28T11:36:14.138Z,6.60
2023-02-28T11:41:54.247Z,6.50
2023-02-28T11:47:01.753Z,15.00
2023-02-28T11:52:15.305Z,6.20
2023-02-28T11:57:31.788Z,7.90
2023-02-28T12:03:12.317Z,8.30
2023-02-28T12:08:32.909Z,7.90
2023-02-28T12:13:56.414Z,10.20
2023-02-28T12:19:16.957Z,8.10
2023-02-28T12:24:18.753Z,8.90
2023-02-28T12:29:26.118Z,7.00
2023-02-28T12:34:34.296Z,7.20
2023-02-28T12:39:50.271Z,9.80
2023-02-28T12:45:34.244Z,8.40
2023-02-28T12:50:37.173Z,11.60
2023-02-28T12:55:57.830Z,9.60
2023-02-28T13:01:29.102Z,8.40
2023-02-28T13:06:33.959Z,11.30
2023-02-28T13:11:43.701Z,8.10
2023-02-28T13:17:09.924Z,14.60
2023-02-28T13:22:40.356Z,8.40
2023-02-28T13:27:42.904Z,7.80
2023-02-28T13:32:44.542Z,9.60
2023-02-28T13:37:50.811Z,6.20
2023-02-28T13:42:53.531Z,9.40
2023-02-28T13:48:03.840Z,10.20
2023-02-28T13:58:28.404Z,8.60
2023-02-28T14:03:35.670Z,6.70
2023-02-28T14:08:37.791Z,8.80
2023-02-28T14:13:46.231Z,8.90
2023-02-28T14:18:56.533Z,8.20
2023-02-28T14:29:46.761Z,12.60
2023-02-28T14:40:18.927Z,9.10
2023-02-28T14:45:22.198Z,9.20
2023-02-28T14:50:30.693Z,10.90
2023-02-28T14:55:36.079Z,11.30
2023-02-28T15:00:48.483Z,10.60
2023-02-28T15:05:58.589Z,9.30
2023-02-28T15:16:07.146Z,9.30
2023-02-28T15:21:14.411Z,9.60
2023-02-28T15:26:23.673Z,11.70
2023-02-28T15:31:46.824Z,10.90
2023-02-28T15:36:55.556Z,8.70
2023-02-28T15:42:18.769Z,7.60
2023-02-28T15:47:26.947Z,10.00
2023-02-28T15:52:37.405Z,11.70
2023-02-28T15:57:41.890Z,11.30
2023-02-28T16:02:43.584Z,11.50
2023-02-28T16:07:46.061Z,15.60
2023-02-28T16:12:47.649Z,12.50
2023-02-28T16:17:50.472Z,8.30
2023-02-28T16:22:53.002Z,12.10
2023-02-28T16:27:55.871Z,10.80
2023-02-28T16:32:57.364Z,7.50
2023-02-28T16:37:58.868Z,8.40
2023-02-28T16:43:01.767Z,8.90
2023-02-28T16:48:03.532Z,7.40
2023-02-28T16:53:06.396Z,6.80
2023-02-28T16:58:08.027Z,6.50
2023-02-28T17:03:32.696Z,10.50
2023-02-28T17:08:35.983Z,36.70
2023-02-28T17:13:37.453Z,33.60
2023-02-28T17:18:40.447Z,55.00
2023-02-28T17:23:42.489Z,63.00
2023-02-28T17:28:44.549Z,37.30
2023-02-28T17:33:46.134Z,27.80
2023-02-28T17:38:47.629Z,32.70
2023-02-28T17:43:51.236Z,20.80
2023-02-28T17:48:54.384Z,19.40
2023-02-28T17:53:55.822Z,20.00
2023-02-28T17:58:58.178Z,21.00
2023-02-28T18:03:59.708Z,66.30
2023-02-28T18:09:01.173Z,39.40
2023-02-28T18:14:02.669Z,47.20
2023-02-28T18:19:04.335Z,42.30
2023-02-28T18:24:06.124Z,46.80
2023-02-28T18:29:08.822Z,48.80
2023-02-28T18:34:10.293Z,44.60
2023-02-28T18:39:12.162Z,49.90
2023-02-28T18:44:19.769Z,60.50
2023-02-28T18:49:22.554Z,35.10
2023-02-28T18:54:24.080Z,40.40
2023-02-28T18:59:26.036Z,36.90
2023-02-28T19:04:27.664Z,51.00
2023-02-28T19:09:29.178Z,48.10
2023-02-28T19:14:30.701Z,52.40
2023-02-28T19:19:32.260Z,43.20
2023-02-28T19:24:33.719Z,43.00
2023-02-28T19:29:35.317Z,69.40
2023-02-28T19:34:36.767Z,63.90
2023-02-28T19:39:41.214Z,28.70
2023-02-28T19:44:44.041Z,27.60
2023-02-28T19:49:45.608Z,26.90
2023-02-28T19:54:47.425Z,23.00
2023-02-28T19:59:49.986Z,24.10
2023-02-28T20:04:52.178Z,20.60
2023-02-28T20:09:53.833Z,30.00
2023-02-28T20:14:59.835Z,182.20
2023-02-28T20:20:01.684Z,80.10
2023-02-28T20:25:03.843Z,69.20
2023-02-28T20:30:06.289Z,64.80
2023-02-28T20:35:11.533Z,72.50
2023-02-28T20:40:14.401Z,94.80
2023-02-28T20:45:16.000Z,63.40
2023-02-28T20:50:17.686Z,59.40
2023-02-28T20:55:19.133Z,41.50
2023-02-28T21:00:22.472Z,49.10
2023-02-28T21:05:24.313Z,68.20
2023-02-28T21:10:25.825Z,47.30
2023-02-28T21:15:27.309Z,60.60
2023-02-28T21:20:28.991Z,46.00
2023-02-28T21:25:30.533Z,38.70
2023-02-28T21:30:32.010Z,37.30
2023-02-28T21:35:34.281Z,40.90
2023-02-28T21:40:35.848Z,55.10
2023-02-28T21:45:37.376Z,114.40
2023-02-28T21:50:38.905Z,76.50
2023-02-28T21:55:40.339Z,72.80
2023-02-28T22:00:41.801Z,75.20
2023-02-28T22:05:43.305Z,67.00
2023-02-28T22:10:44.781Z,55.20
2023-02-28T22:15:46.291Z,46.90
2023-02-28T22:20:55.006Z,37.00
2023-02-28T22:25:57.386Z,40.90
2023-02-28T22:31:00.274Z,35.90
2023-02-28T22:36:06.087Z,41.00
2023-02-28T22:41:08.788Z,87.10
2023-02-28T22:46:13.172Z,73.60
2023-02-28T22:51:17.813Z,53.50
2023-02-28T22:56:21.272Z,52.00
2023-02-28T23:01:25.014Z,48.10
2023-02-28T23:06:33.051Z,44.70
2023-02-28T23:11:38.783Z,51.60
2023-02-28T23:16:46.143Z,50.50
2023-02-28T23:21:48.138Z,69.40
2023-02-28T23:26:53.757Z,48.00
2023-02-28T23:31:56.251Z,53.70
2023-02-28T23:37:00.505Z,49.50
2023-02-28T23:42:02.135Z,51.70
2023-02-28T23:47:03.703Z,57.80
2023-02-28T23:52:05.828Z,43.60
2023-02-28T23:57:07.670Z,39.50
